sensor_id;sensor_type;location;lat;lon;timestamp;pressure;altitude;pressure_sealevel;temperature
69435;BMP180;56625;54.322;18.582;2022-09-09T00:02:20;100678.20;;;14.70
69435;BMP180;56625;54.322;18.582;2022-09-09T00:05:02;100675.80;;;14.70
69435;BMP180;56625;54.322;18.582;2022-09-09T00:07:52;100672.40;;;14.70
69435;BMP180;56625;54.322;18.582;2022-09-09T00:10:41;100666.80;;;14.70
69435;BMP180;56625;54.322;18.582;2022-09-09T00:13:24;100667.80;;;14.70
69435;BMP180;56625;54.322;18.582;2022-09-09T00:19:19;100665.20;;;14.60
69435;BMP180;56625;54.322;18.582;2022-09-09T00:22:19;100662.20;;;14.60
69435;BMP180;56625;54.322;18.582;2022-09-09T00:24:55;100662.60;;;14.60
69435;BMP180;56625;54.322;18.582;2022-09-09T00:27:40;100660.00;;;14.60
69435;BMP180;56625;54.322;18.582;2022-09-09T00:30:25;100655.20;;;14.60
69435;BMP180;56625;54.322;18.582;2022-09-09T00:33:11;100656.00;;;14.60
69435;BMP180;56625;54.322;18.582;2022-09-09T00:35:49;100655.40;;;14.60
69435;BMP180;56625;54.322;18.582;2022-09-09T00:38:42;100656.20;;;14.60
69435;BMP180;56625;54.322;18.582;2022-09-09T00:41:22;100656.40;;;14.60
69435;BMP180;56625;54.322;18.582;2022-09-09T00:44:25;100651.00;;;14.60
69435;BMP180;56625;54.322;18.582;2022-09-09T00:50:44;100643.80;;;14.50
69435;BMP180;56625;54.322;18.582;2022-09-09T00:56:21;100645.60;;;14.50
69435;BMP180;56625;54.322;18.582;2022-09-09T00:59:07;100639.40;;;14.50
69435;BMP180;56625;54.322;18.582;2022-09-09T01:01:39;100640.40;;;14.50
69435;BMP180;56625;54.322;18.582;2022-09-09T01:04:18;100642.80;;;14.60
69435;BMP180;56625;54.322;18.582;2022-09-09T01:06:58;100643.20;;;14.60
69435;BMP180;56625;54.322;18.582;2022-09-09T01:09:55;100642.60;;;14.60
69435;BMP180;56625;54.322;18.582;2022-09-09T01:12:38;100645.80;;;14.60
69435;BMP180;56625;54.322;18.582;2022-09-09T01:15:29;100639.60;;;14.60
69435;BMP180;56625;54.322;18.582;2022-09-09T01:18:13;100638.80;;;14.60
69435;BMP180;56625;54.322;18.582;2022-09-09T01:26:45;100645.20;;;14.60
69435;BMP180;56625;54.322;18.582;2022-09-09T01:29:16;100647.60;;;14.60
69435;BMP180;56625;54.322;18.582;2022-09-09T01:32:01;100647.60;;;14.60
69435;BMP180;56625;54.322;18.582;2022-09-09T01:34:38;100641.40;;;14.60
69435;BMP180;56625;54.322;18.582;2022-09-09T01:37:10;100644.60;;;14.60
69435;BMP180;56625;54.322;18.582;2022-09-09T01:39:43;100641.20;;;14.60
69435;BMP180;56625;54.322;18.582;2022-09-09T01:42:16;100642.00;;;14.60
69435;BMP180;56625;54.322;18.582;2022-09-09T01:44:43;100644.00;;;14.60
69435;BMP180;56625;54.322;18.582;2022-09-09T01:47:11;100643.80;;;14.60
69435;BMP180;56625;54.322;18.582;2022-09-09T01:49:39;100645.00;;;14.60
69435;BMP180;56625;54.322;18.582;2022-09-09T01:52:07;100646.20;;;14.60
69435;BMP180;56625;54.322;18.582;2022-09-09T01:54:36;100645.80;;;14.60
69435;BMP180;56625;54.322;18.582;2022-09-09T01:57:22;100641.00;;;14.60
69435;BMP180;56625;54.322;18.582;2022-09-09T02:00:04;100643.60;;;14.60
69435;BMP180;56625;54.322;18.582;2022-09-09T02:02:59;100643.80;;;14.60
69435;BMP180;56625;54.322;18.582;2022-09-09T02:05:41;100645.60;;;14.60
69435;BMP180;56625;54.322;18.582;2022-09-09T02:08:22;100638.20;;;14.60
69435;BMP180;56625;54.322;18.582;2022-09-09T02:11:14;100639.80;;;14.60
69435;BMP180;56625;54.322;18.582;2022-09-09T02:13:45;100642.80;;;14.60
69435;BMP180;56625;54.322;18.582;2022-09-09T02:16:23;100641.80;;;14.60
69435;BMP180;56625;54.322;18.582;2022-09-09T02:21:33;100640.40;;;14.60
69435;BMP180;56625;54.322;18.582;2022-09-09T02:24:06;100641.60;;;14.60
69435;BMP180;56625;54.322;18.582;2022-09-09T02:26:41;100636.00;;;14.60
69435;BMP180;56625;54.322;18.582;2022-09-09T02:29:23;100639.40;;;14.60
69435;BMP180;56625;54.322;18.582;2022-09-09T02:31:54;100636.80;;;14.60
69435;BMP180;56625;54.322;18.582;2022-09-09T02:34:25;100635.00;;;14.60
69435;BMP180;56625;54.322;18.582;2022-09-09T02:36:58;100636.80;;;14.60
69435;BMP180;56625;54.322;18.582;2022-09-09T02:39:27;100637.80;;;14.60
69435;BMP180;56625;54.322;18.582;2022-09-09T02:41:55;100634.80;;;14.50
69435;BMP180;56625;54.322;18.582;2022-09-09T02:44:23;100634.40;;;14.50
69435;BMP180;56625;54.322;18.582;2022-09-09T02:55:51;100639.20;;;14.40
69435;BMP180;56625;54.322;18.582;2022-09-09T02:58:22;100633.20;;;14.40
69435;BMP180;56625;54.322;18.582;2022-09-09T03:00:51;100637.00;;;14.40
69435;BMP180;56625;54.322;18.582;2022-09-09T03:03:20;100640.20;;;14.30
69435;BMP180;56625;54.322;18.582;2022-09-09T03:05:49;100646.40;;;14.30
69435;BMP180;56625;54.322;18.582;2022-09-09T03:08:17;100644.40;;;14.30
69435;BMP180;56625;54.322;18.582;2022-09-09T03:10:45;100649.60;;;14.30
69435;BMP180;56625;54.322;18.582;2022-09-09T03:13:13;100654.20;;;14.26
69435;BMP180;56625;54.322;18.582;2022-09-09T03:15:42;100663.60;;;14.20
69435;BMP180;56625;54.322;18.582;2022-09-09T03:18:10;100671.00;;;14.10
69435;BMP180;56625;54.322;18.582;2022-09-09T03:20:38;100674.80;;;14.00
69435;BMP180;56625;54.322;18.582;2022-09-09T03:23:06;100682.20;;;13.90
69435;BMP180;56625;54.322;18.582;2022-09-09T03:25:49;100687.60;;;13.80
69435;BMP180;56625;54.322;18.582;2022-09-09T03:28:18;100697.40;;;13.60
69435;BMP180;56625;54.322;18.582;2022-09-09T03:30:46;100700.80;;;13.40
69435;BMP180;56625;54.322;18.582;2022-09-09T03:33:14;100708.60;;;13.20
69435;BMP180;56625;54.322;18.582;2022-09-09T03:35:47;100712.60;;;13.02
69435;BMP180;56625;54.322;18.582;2022-09-09T03:38:18;100726.20;;;12.90
69435;BMP180;56625;54.322;18.582;2022-09-09T03:40:54;100730.60;;;12.82
69435;BMP180;56625;54.322;18.582;2022-09-09T03:43:24;100730.60;;;12.80
69435;BMP180;56625;54.322;18.582;2022-09-09T03:45:53;100737.80;;;12.78
69435;BMP180;56625;54.322;18.582;2022-09-09T03:48:25;100735.60;;;12.70
69435;BMP180;56625;54.322;18.582;2022-09-09T03:50:57;100729.40;;;12.60
69435;BMP180;56625;54.322;18.582;2022-09-09T03:53:30;100731.20;;;12.60
69435;BMP180;56625;54.322;18.582;2022-09-09T03:55:58;100730.60;;;12.60
69435;BMP180;56625;54.322;18.582;2022-09-09T03:58:28;100721.60;;;12.52
69435;BMP180;56625;54.322;18.582;2022-09-09T04:01:03;100726.80;;;12.50
69435;BMP180;56625;54.322;18.582;2022-09-09T04:03:31;100732.80;;;12.48
69435;BMP180;56625;54.322;18.582;2022-09-09T04:06:02;100731.60;;;12.40
69435;BMP180;56625;54.322;18.582;2022-09-09T04:08:31;100728.20;;;12.40
69435;BMP180;56625;54.322;18.582;2022-09-09T04:11:00;100730.00;;;12.40
69435;BMP180;56625;54.322;18.582;2022-09-09T04:13:34;100722.20;;;12.40
69435;BMP180;56625;54.322;18.582;2022-09-09T04:16:03;100728.40;;;12.40
69435;BMP180;56625;54.322;18.582;2022-09-09T04:18:32;100729.40;;;12.40
69435;BMP180;56625;54.322;18.582;2022-09-09T04:21:00;100734.60;;;12.40
69435;BMP180;56625;54.322;18.582;2022-09-09T04:23:29;100731.20;;;12.40
69435;BMP180;56625;54.322;18.582;2022-09-09T04:25:58;100730.40;;;12.32
69435;BMP180;56625;54.322;18.582;2022-09-09T04:28:31;100733.80;;;12.34
69435;BMP180;56625;54.322;18.582;2022-09-09T04:31:28;100731.60;;;12.30
69435;BMP180;56625;54.322;18.582;2022-09-09T04:33:56;100735.80;;;12.30
69435;BMP180;56625;54.322;18.582;2022-09-09T04:36:24;100730.80;;;12.30
69435;BMP180;56625;54.322;18.582;2022-09-09T04:38:52;100735.20;;;12.30
69435;BMP180;56625;54.322;18.582;2022-09-09T04:41:20;100736.00;;;12.30
69435;BMP180;56625;54.322;18.582;2022-09-09T04:43:48;100738.40;;;12.30
69435;BMP180;56625;54.322;18.582;2022-09-09T04:46:16;100738.80;;;12.34
69435;BMP180;56625;54.322;18.582;2022-09-09T04:48:44;100733.80;;;12.30
69435;BMP180;56625;54.322;18.582;2022-09-09T04:51:13;100732.20;;;12.30
69435;BMP180;56625;54.322;18.582;2022-09-09T04:53:42;100736.20;;;12.30
69435;BMP180;56625;54.322;18.582;2022-09-09T04:56:16;100734.40;;;12.40
69435;BMP180;56625;54.322;18.582;2022-09-09T04:58:45;100736.80;;;12.40
69435;BMP180;56625;54.322;18.582;2022-09-09T05:01:17;100733.00;;;12.40
69435;BMP180;56625;54.322;18.582;2022-09-09T05:03:46;100737.80;;;12.40
69435;BMP180;56625;54.322;18.582;2022-09-09T05:06:21;100741.40;;;12.40
69435;BMP180;56625;54.322;18.582;2022-09-09T05:08:49;100743.40;;;12.36
69435;BMP180;56625;54.322;18.582;2022-09-09T05:11:21;100744.60;;;12.30
69435;BMP180;56625;54.322;18.582;2022-09-09T05:14:15;100747.00;;;12.30
69435;BMP180;56625;54.322;18.582;2022-09-09T05:16:48;100753.60;;;12.30
69435;BMP180;56625;54.322;18.582;2022-09-09T05:19:17;100747.20;;;12.30
69435;BMP180;56625;54.322;18.582;2022-09-09T05:21:53;100745.00;;;12.30
69435;BMP180;56625;54.322;18.582;2022-09-09T05:24:39;100742.80;;;12.30
69435;BMP180;56625;54.322;18.582;2022-09-09T05:27:15;100748.20;;;12.30
69435;BMP180;56625;54.322;18.582;2022-09-09T05:30:33;100745.20;;;12.30
69435;BMP180;56625;54.322;18.582;2022-09-09T05:33:22;100744.20;;;12.30
69435;BMP180;56625;54.322;18.582;2022-09-09T05:36:10;100746.00;;;12.30
69435;BMP180;56625;54.322;18.582;2022-09-09T05:38:48;100740.40;;;12.30
69435;BMP180;56625;54.322;18.582;2022-09-09T05:41:46;100739.80;;;12.30
69435;BMP180;56625;54.322;18.582;2022-09-09T05:44:17;100737.20;;;12.34
69435;BMP180;56625;54.322;18.582;2022-09-09T05:47:35;100743.80;;;12.34
69435;BMP180;56625;54.322;18.582;2022-09-09T05:50:30;100743.20;;;12.30
69435;BMP180;56625;54.322;18.582;2022-09-09T05:53:07;100750.00;;;12.30
69435;BMP180;56625;54.322;18.582;2022-09-09T05:55:49;100753.60;;;12.26
69435;BMP180;56625;54.322;18.582;2022-09-09T05:58:18;100750.60;;;12.20
69435;BMP180;56625;54.322;18.582;2022-09-09T06:00:46;100750.80;;;12.10
69435;BMP180;56625;54.322;18.582;2022-09-09T06:03:17;100755.00;;;12.08
69435;BMP180;56625;54.322;18.582;2022-09-09T06:05:45;100752.60;;;12.00
69435;BMP180;56625;54.322;18.582;2022-09-09T06:08:13;100747.00;;;12.00
69435;BMP180;56625;54.322;18.582;2022-09-09T06:10:41;100748.40;;;12.02
69435;BMP180;56625;54.322;18.582;2022-09-09T06:13:09;100752.20;;;12.00
69435;BMP180;56625;54.322;18.582;2022-09-09T06:15:37;100758.60;;;12.00
69435;BMP180;56625;54.322;18.582;2022-09-09T06:18:05;100763.40;;;11.90
69435;BMP180;56625;54.322;18.582;2022-09-09T06:20:33;100763.00;;;11.90
69435;BMP180;56625;54.322;18.582;2022-09-09T06:23:03;100765.20;;;11.90
69435;BMP180;56625;54.322;18.582;2022-09-09T06:25:31;100761.00;;;11.90
69435;BMP180;56625;54.322;18.582;2022-09-09T06:28:00;100761.40;;;11.90
69435;BMP180;56625;54.322;18.582;2022-09-09T06:30:33;100765.20;;;11.90
69435;BMP180;56625;54.322;18.582;2022-09-09T06:33:24;100763.40;;;11.90
69435;BMP180;56625;54.322;18.582;2022-09-09T06:35:59;100766.60;;;11.90
69435;BMP180;56625;54.322;18.582;2022-09-09T06:38:30;100768.80;;;11.90
69435;BMP180;56625;54.322;18.582;2022-09-09T06:40:59;100763.20;;;11.90
69435;BMP180;56625;54.322;18.582;2022-09-09T06:43:32;100763.60;;;11.90
69435;BMP180;56625;54.322;18.582;2022-09-09T06:46:32;100759.80;;;11.90
69435;BMP180;56625;54.322;18.582;2022-09-09T06:49:34;100766.40;;;11.90
69435;BMP180;56625;54.322;18.582;2022-09-09T06:52:17;100769.40;;;11.90
69435;BMP180;56625;54.322;18.582;2022-09-09T06:54:49;100774.20;;;11.90
69435;BMP180;56625;54.322;18.582;2022-09-09T06:57:17;100774.20;;;11.90
69435;BMP180;56625;54.322;18.582;2022-09-09T07:00:06;100774.00;;;11.90
69435;BMP180;56625;54.322;18.582;2022-09-09T07:02:36;100774.20;;;11.90
69435;BMP180;56625;54.322;18.582;2022-09-09T07:05:07;100776.80;;;11.90
69435;BMP180;56625;54.322;18.582;2022-09-09T07:07:36;100777.00;;;11.80
69435;BMP180;56625;54.322;18.582;2022-09-09T07:10:14;100778.40;;;11.86
69435;BMP180;56625;54.322;18.582;2022-09-09T07:12:56;100777.40;;;11.90
69435;BMP180;56625;54.322;18.582;2022-09-09T07:15:24;100780.40;;;11.90
69435;BMP180;56625;54.322;18.582;2022-09-09T07:17:54;100775.00;;;11.80
69435;BMP180;56625;54.322;18.582;2022-09-09T07:20:22;100778.80;;;11.80
69435;BMP180;56625;54.322;18.582;2022-09-09T07:22:49;100779.40;;;11.80
69435;BMP180;56625;54.322;18.582;2022-09-09T07:25:17;100775.00;;;11.80
69435;BMP180;56625;54.322;18.582;2022-09-09T07:27:49;100775.00;;;11.80
69435;BMP180;56625;54.322;18.582;2022-09-09T07:30:21;100775.80;;;11.80
69435;BMP180;56625;54.322;18.582;2022-09-09T07:32:54;100778.60;;;11.76
69435;BMP180;56625;54.322;18.582;2022-09-09T07:35:26;100774.80;;;11.80
69435;BMP180;56625;54.322;18.582;2022-09-09T07:37:54;100781.80;;;11.80
69435;BMP180;56625;54.322;18.582;2022-09-09T07:40:23;100777.00;;;11.80
69435;BMP180;56625;54.322;18.582;2022-09-09T07:42:51;100780.80;;;11.80
69435;BMP180;56625;54.322;18.582;2022-09-09T07:45:19;100780.40;;;11.70
69435;BMP180;56625;54.322;18.582;2022-09-09T07:47:47;100778.60;;;11.80
69435;BMP180;56625;54.322;18.582;2022-09-09T07:50:17;100777.00;;;11.80
69435;BMP180;56625;54.322;18.582;2022-09-09T07:52:45;100782.20;;;11.80
69435;BMP180;56625;54.322;18.582;2022-09-09T07:55:16;100784.00;;;11.82
69435;BMP180;56625;54.322;18.582;2022-09-09T07:57:44;100784.80;;;11.80
69435;BMP180;56625;54.322;18.582;2022-09-09T08:00:17;100778.20;;;11.80
69435;BMP180;56625;54.322;18.582;2022-09-09T08:02:46;100785.00;;;11.80
69435;BMP180;56625;54.322;18.582;2022-09-09T08:05:14;100788.00;;;11.90
69435;BMP180;56625;54.322;18.582;2022-09-09T08:07:46;100785.80;;;11.90
69435;BMP180;56625;54.322;18.582;2022-09-09T08:10:19;100789.20;;;11.90
69435;BMP180;56625;54.322;18.582;2022-09-09T08:12:55;100793.60;;;11.84
69435;BMP180;56625;54.322;18.582;2022-09-09T08:15:49;100794.80;;;11.88
69435;BMP180;56625;54.322;18.582;2022-09-09T08:18:31;100795.00;;;11.90
69435;BMP180;56625;54.322;18.582;2022-09-09T08:22:16;100793.20;;;11.90
69435;BMP180;56625;54.322;18.582;2022-09-09T08:26:33;100793.00;;;11.90
69435;BMP180;56625;54.322;18.582;2022-09-09T08:29:07;100798.00;;;11.90
69435;BMP180;56625;54.322;18.582;2022-09-09T08:31:51;100802.20;;;11.90
69435;BMP180;56625;54.322;18.582;2022-09-09T08:34:26;100805.80;;;11.90
69435;BMP180;56625;54.322;18.582;2022-09-09T08:37:13;100807.80;;;11.80
69435;BMP180;56625;54.322;18.582;2022-09-09T08:40:00;100804.80;;;11.80
69435;BMP180;56625;54.322;18.582;2022-09-09T08:43:05;100804.20;;;11.86
69435;BMP180;56625;54.322;18.582;2022-09-09T08:46:25;100805.40;;;11.80
69435;BMP180;56625;54.322;18.582;2022-09-09T08:53:17;100811.00;;;11.90
69435;BMP180;56625;54.322;18.582;2022-09-09T08:56:02;100804.60;;;11.90
69435;BMP180;56625;54.322;18.582;2022-09-09T08:58:51;100808.80;;;11.94
69435;BMP180;56625;54.322;18.582;2022-09-09T09:07:40;100809.40;;;12.00
69435;BMP180;56625;54.322;18.582;2022-09-09T09:10:47;100804.20;;;12.00
69435;BMP180;56625;54.322;18.582;2022-09-09T09:13:54;100807.20;;;12.00
69435;BMP180;56625;54.322;18.582;2022-09-09T09:19:38;100806.20;;;12.00
69435;BMP180;56625;54.322;18.582;2022-09-09T09:22:29;100805.20;;;12.00
69435;BMP180;56625;54.322;18.582;2022-09-09T09:25:19;100803.20;;;12.10
69435;BMP180;56625;54.322;18.582;2022-09-09T09:28:01;100800.40;;;12.10
69435;BMP180;56625;54.322;18.582;2022-09-09T09:30:53;100807.60;;;12.10
69435;BMP180;56625;54.322;18.582;2022-09-09T09:33:45;100801.60;;;12.14
69435;BMP180;56625;54.322;18.582;2022-09-09T09:36:18;100805.40;;;12.14
69435;BMP180;56625;54.322;18.582;2022-09-09T09:39:32;100808.40;;;12.16
69435;BMP180;56625;54.322;18.582;2022-09-09T09:42:33;100817.00;;;12.10
69435;BMP180;56625;54.322;18.582;2022-09-09T09:45:40;100814.80;;;12.10
69435;BMP180;56625;54.322;18.582;2022-09-09T09:48:43;100811.80;;;12.20
69435;BMP180;56625;54.322;18.582;2022-09-09T09:51:39;100813.00;;;12.20
69435;BMP180;56625;54.322;18.582;2022-09-09T09:56:50;100816.40;;;12.20
69435;BMP180;56625;54.322;18.582;2022-09-09T09:59:37;100817.80;;;12.20
69435;BMP180;56625;54.322;18.582;2022-09-09T10:02:24;100808.80;;;12.20
69435;BMP180;56625;54.322;18.582;2022-09-09T10:05:25;100814.60;;;12.20
69435;BMP180;56625;54.322;18.582;2022-09-09T10:08:14;100810.80;;;12.30
69435;BMP180;56625;54.322;18.582;2022-09-09T10:14:25;100805.00;;;12.40
69435;BMP180;56625;54.322;18.582;2022-09-09T10:17:54;100800.20;;;12.50
69435;BMP180;56625;54.322;18.582;2022-09-09T10:25:31;100799.80;;;12.60
69435;BMP180;56625;54.322;18.582;2022-09-09T10:35:02;100807.80;;;12.80
69435;BMP180;56625;54.322;18.582;2022-09-09T10:37:54;100808.60;;;12.80
69435;BMP180;56625;54.322;18.582;2022-09-09T10:43:19;100813.20;;;12.80
69435;BMP180;56625;54.322;18.582;2022-09-09T10:55:20;100809.80;;;12.90
69435;BMP180;56625;54.322;18.582;2022-09-09T10:57:56;100805.80;;;13.00
69435;BMP180;56625;54.322;18.582;2022-09-09T11:00:52;100802.20;;;13.10
69435;BMP180;56625;54.322;18.582;2022-09-09T11:03:29;100802.80;;;13.20
69435;BMP180;56625;54.322;18.582;2022-09-09T11:06:18;100799.20;;;13.20
69435;BMP180;56625;54.322;18.582;2022-09-09T11:09:05;100800.40;;;13.20
69435;BMP180;56625;54.322;18.582;2022-09-09T11:11:47;100801.40;;;13.20
69435;BMP180;56625;54.322;18.582;2022-09-09T11:14:30;100805.40;;;13.28
69435;BMP180;56625;54.322;18.582;2022-09-09T11:17:11;100809.40;;;13.20
69435;BMP180;56625;54.322;18.582;2022-09-09T11:19:43;100809.80;;;13.20
69435;BMP180;56625;54.322;18.582;2022-09-09T11:22:29;100815.60;;;13.20
69435;BMP180;56625;54.322;18.582;2022-09-09T11:25:18;100809.80;;;13.20
69435;BMP180;56625;54.322;18.582;2022-09-09T11:28:38;100814.60;;;13.30
69435;BMP180;56625;54.322;18.582;2022-09-09T11:31:41;100815.00;;;13.30
69435;BMP180;56625;54.322;18.582;2022-09-09T11:37:51;100821.20;;;13.30
69435;BMP180;56625;54.322;18.582;2022-09-09T11:40:26;100817.60;;;13.30
69435;BMP180;56625;54.322;18.582;2022-09-09T11:43:24;100822.00;;;13.30
69435;BMP180;56625;54.322;18.582;2022-09-09T11:45:56;100825.00;;;13.30
69435;BMP180;56625;54.322;18.582;2022-09-09T11:48:36;100824.00;;;13.30
69435;BMP180;56625;54.322;18.582;2022-09-09T11:51:09;100822.80;;;13.30
69435;BMP180;56625;54.322;18.582;2022-09-09T11:53:58;100822.40;;;13.30
69435;BMP180;56625;54.322;18.582;2022-09-09T11:56:43;100824.60;;;13.26
69435;BMP180;56625;54.322;18.582;2022-09-09T11:59:29;100827.40;;;13.20
69435;BMP180;56625;54.322;18.582;2022-09-09T12:02:22;100818.80;;;13.30
69435;BMP180;56625;54.322;18.582;2022-09-09T12:07:41;100828.00;;;13.30
69435;BMP180;56625;54.322;18.582;2022-09-09T12:10:32;100826.40;;;13.30
69435;BMP180;56625;54.322;18.582;2022-09-09T12:13:23;100828.40;;;13.30
69435;BMP180;56625;54.322;18.582;2022-09-09T12:15:58;100824.40;;;13.30
69435;BMP180;56625;54.322;18.582;2022-09-09T12:18:36;100831.60;;;13.30
69435;BMP180;56625;54.322;18.582;2022-09-09T12:24:30;100832.00;;;13.30
69435;BMP180;56625;54.322;18.582;2022-09-09T12:27:26;100838.60;;;13.28
69435;BMP180;56625;54.322;18.582;2022-09-09T12:30:15;100838.60;;;13.20
69435;BMP180;56625;54.322;18.582;2022-09-09T12:32:45;100840.40;;;13.20
69435;BMP180;56625;54.322;18.582;2022-09-09T12:35:23;100838.60;;;13.20
69435;BMP180;56625;54.322;18.582;2022-09-09T12:38:04;100835.20;;;13.22
69435;BMP180;56625;54.322;18.582;2022-09-09T12:40:37;100838.60;;;13.20
69435;BMP180;56625;54.322;18.582;2022-09-09T12:43:22;100838.20;;;13.20
69435;BMP180;56625;54.322;18.582;2022-09-09T12:46:00;100827.80;;;13.20
69435;BMP180;56625;54.322;18.582;2022-09-09T12:48:39;100832.40;;;13.20
69435;BMP180;56625;54.322;18.582;2022-09-09T12:51:24;100831.80;;;13.20
69435;BMP180;56625;54.322;18.582;2022-09-09T12:53:58;100832.80;;;13.20
69435;BMP180;56625;54.322;18.582;2022-09-09T12:56:32;100834.00;;;13.20
69435;BMP180;56625;54.322;18.582;2022-09-09T12:59:00;100841.20;;;13.10
69435;BMP180;56625;54.322;18.582;2022-09-09T13:01:32;100834.00;;;13.10
69435;BMP180;56625;54.322;18.582;2022-09-09T13:04:20;100828.00;;;13.20
69435;BMP180;56625;54.322;18.582;2022-09-09T13:06:54;100834.20;;;13.22
69435;BMP180;56625;54.322;18.582;2022-09-09T13:09:36;100833.00;;;13.22
69435;BMP180;56625;54.322;18.582;2022-09-09T13:12:19;100831.20;;;13.30
69435;BMP180;56625;54.322;18.582;2022-09-09T13:14:57;100829.40;;;13.20
69435;BMP180;56625;54.322;18.582;2022-09-09T13:18:07;100829.80;;;13.20
69435;BMP180;56625;54.322;18.582;2022-09-09T13:20:52;100827.00;;;13.20
69435;BMP180;56625;54.322;18.582;2022-09-09T13:23:42;100824.00;;;13.20
69435;BMP180;56625;54.322;18.582;2022-09-09T13:26:30;100825.20;;;13.20
69435;BMP180;56625;54.322;18.582;2022-09-09T13:29:18;100820.00;;;13.20
69435;BMP180;56625;54.322;18.582;2022-09-09T13:32:41;100814.60;;;13.20
69435;BMP180;56625;54.322;18.582;2022-09-09T13:36:30;100812.60;;;13.20
69435;BMP180;56625;54.322;18.582;2022-09-09T13:40:28;100815.00;;;13.30
69435;BMP180;56625;54.322;18.582;2022-09-09T13:43:21;100811.40;;;13.30
69435;BMP180;56625;54.322;18.582;2022-09-09T13:46:33;100810.20;;;13.24
69435;BMP180;56625;54.322;18.582;2022-09-09T13:52:02;100804.00;;;13.20
69435;BMP180;56625;54.322;18.582;2022-09-09T13:55:15;100805.80;;;13.30
69435;BMP180;56625;54.322;18.582;2022-09-09T13:58:39;100805.00;;;13.28
69435;BMP180;56625;54.322;18.582;2022-09-09T14:01:42;100800.60;;;13.20
69435;BMP180;56625;54.322;18.582;2022-09-09T14:04:15;100800.20;;;13.20
69435;BMP180;56625;54.322;18.582;2022-09-09T14:06:52;100796.60;;;13.20
69435;BMP180;56625;54.322;18.582;2022-09-09T14:09:32;100797.20;;;13.20
69435;BMP180;56625;54.322;18.582;2022-09-09T14:12:22;100795.60;;;13.20
69435;BMP180;56625;54.322;18.582;2022-09-09T14:15:22;100794.60;;;13.30
69435;BMP180;56625;54.322;18.582;2022-09-09T14:18:26;100794.00;;;13.30
69435;BMP180;56625;54.322;18.582;2022-09-09T14:21:11;100794.60;;;13.30
69435;BMP180;56625;54.322;18.582;2022-09-09T14:23:43;100789.20;;;13.30
69435;BMP180;56625;54.322;18.582;2022-09-09T14:26:17;100794.00;;;13.30
69435;BMP180;56625;54.322;18.582;2022-09-09T14:28:48;100796.40;;;13.22
69435;BMP180;56625;54.322;18.582;2022-09-09T14:31:36;100798.20;;;13.20
69435;BMP180;56625;54.322;18.582;2022-09-09T14:34:14;100798.60;;;13.26
69435;BMP180;56625;54.322;18.582;2022-09-09T14:36:59;100800.20;;;13.30
69435;BMP180;56625;54.322;18.582;2022-09-09T14:39:34;100799.60;;;13.30
69435;BMP180;56625;54.322;18.582;2022-09-09T14:42:03;100800.60;;;13.30
69435;BMP180;56625;54.322;18.582;2022-09-09T14:44:37;100804.60;;;13.30
69435;BMP180;56625;54.322;18.582;2022-09-09T14:47:20;100810.00;;;13.32
69435;BMP180;56625;54.322;18.582;2022-09-09T14:49:52;100806.40;;;13.40
69435;BMP180;56625;54.322;18.582;2022-09-09T14:52:33;100808.80;;;13.40
69435;BMP180;56625;54.322;18.582;2022-09-09T14:55:08;100814.40;;;13.30
69435;BMP180;56625;54.322;18.582;2022-09-09T14:57:37;100816.80;;;13.30
69435;BMP180;56625;54.322;18.582;2022-09-09T15:00:11;100808.60;;;13.30
69435;BMP180;56625;54.322;18.582;2022-09-09T15:03:04;100810.40;;;13.30
69435;BMP180;56625;54.322;18.582;2022-09-09T15:05:49;100805.80;;;13.40
69435;BMP180;56625;54.322;18.582;2022-09-09T15:08:24;100807.60;;;13.40
69435;BMP180;56625;54.322;18.582;2022-09-09T15:11:13;100804.20;;;13.30
69435;BMP180;56625;54.322;18.582;2022-09-09T15:13:46;100801.60;;;13.40
69435;BMP180;56625;54.322;18.582;2022-09-09T15:16:31;100796.40;;;13.40
69435;BMP180;56625;54.322;18.582;2022-09-09T15:19:08;100799.00;;;13.40
69435;BMP180;56625;54.322;18.582;2022-09-09T15:21:37;100802.60;;;13.40
69435;BMP180;56625;54.322;18.582;2022-09-09T15:24:06;100811.60;;;13.40
69435;BMP180;56625;54.322;18.582;2022-09-09T15:27:04;100817.00;;;13.30
69435;BMP180;56625;54.322;18.582;2022-09-09T15:30:06;100822.60;;;13.30
69435;BMP180;56625;54.322;18.582;2022-09-09T15:32:53;100817.00;;;13.30
69435;BMP180;56625;54.322;18.582;2022-09-09T15:35:27;100822.80;;;13.30
69435;BMP180;56625;54.322;18.582;2022-09-09T15:38:03;100821.00;;;13.24
69435;BMP180;56625;54.322;18.582;2022-09-09T15:40:32;100825.00;;;13.30
69435;BMP180;56625;54.322;18.582;2022-09-09T15:43:00;100819.60;;;13.30
69435;BMP180;56625;54.322;18.582;2022-09-09T15:45:33;100815.40;;;13.24
69435;BMP180;56625;54.322;18.582;2022-09-09T15:48:29;100814.40;;;13.20
69435;BMP180;56625;54.322;18.582;2022-09-09T15:51:08;100818.40;;;13.24
69435;BMP180;56625;54.322;18.582;2022-09-09T15:54:13;100820.40;;;13.30
69435;BMP180;56625;54.322;18.582;2022-09-09T15:57:15;100816.20;;;13.34
69435;BMP180;56625;54.322;18.582;2022-09-09T16:00:07;100818.00;;;13.36
69435;BMP180;56625;54.322;18.582;2022-09-09T16:03:05;100817.40;;;13.40
69435;BMP180;56625;54.322;18.582;2022-09-09T16:05:36;100824.40;;;13.42
69435;BMP180;56625;54.322;18.582;2022-09-09T16:08:08;100824.80;;;13.48
69435;BMP180;56625;54.322;18.582;2022-09-09T16:10:41;100827.20;;;13.50
69435;BMP180;56625;54.322;18.582;2022-09-09T16:13:24;100825.80;;;13.50
69435;BMP180;56625;54.322;18.582;2022-09-09T16:16:03;100821.40;;;13.50
69435;BMP180;56625;54.322;18.582;2022-09-09T16:18:51;100819.00;;;13.50
69435;BMP180;56625;54.322;18.582;2022-09-09T16:21:28;100816.60;;;13.50
69435;BMP180;56625;54.322;18.582;2022-09-09T16:24:34;100821.40;;;13.60